Time;durP1;ratioP1;P1;durP2;ratioP2;P2;SDS_P1;SDS_P2;PMS_P1;PMS_P2;Temp;Humidity;BMP_temperature;BMP_pressure;BME280_temperature;BME280_humidity;BME280_pressure;Samples;Min_cycle;Max_cycle;Signal;HPM_P1;HPM_P2
2021/07/14 00:02:05;;;;;;;2.70;2.50;;;;;;;;;;5091770;28;20026;-59
2021/07/14 00:04:30;;;;;;;3.15;2.92;;;;;;;;;;5091972;28;20115;-59
2021/07/14 00:06:55;;;;;;;3.60;2.20;;;;;;;;;;5089419;28;20379;-58
2021/07/14 00:09:20;;;;;;;2.53;2.30;;;;;;;;;;5092197;28;20051;-59
2021/07/14 00:11:55;;;;;;;3.45;2.65;;;;;;;;;;5091535;28;20024;-59
2021/07/14 00:22:17;;;;;;;3.05;2.45;;;;;;;;;;5091752;28;20046;-60
2021/07/14 00:24:44;;;;;;;2.97;1.90;;;;;;;;;;5071844;28;20026;-59
2021/07/14 00:27:10;;;;;;;1.95;1.85;;;;;;;;;;5086769;28;20028;-60
2021/07/14 00:29:37;;;;;;;2.65;2.00;;;;;;;;;;5090851;28;20497;-59
2021/07/14 00:32:06;;;;;;;1.90;1.75;;;;;;;;;;5089773;28;20024;-58
2021/07/14 00:34:31;;;;;;;3.67;2.20;;;;;;;;;;5092102;28;20482;-59
2021/07/14 00:36:56;;;;;;;3.08;2.08;;;;;;;;;;5088977;28;20028;-59
2021/07/14 00:39:22;;;;;;;2.00;1.80;;;;;;;;;;5092089;28;20459;-59
2021/07/14 00:41:47;;;;;;;2.03;1.83;;;;;;;;;;5090784;28;20026;-59
2021/07/14 00:44:12;;;;;;;2.03;1.83;;;;;;;;;;5091896;28;20285;-59
2021/07/14 00:46:39;;;;;;;1.80;1.52;;;;;;;;;;5087639;28;20039;-59
2021/07/14 00:49:06;;;;;;;2.40;1.92;;;;;;;;;;5091443;28;20012;-58
2021/07/14 00:51:31;;;;;;;2.58;1.85;;;;;;;;;;5090337;28;20028;-59
2021/07/14 00:53:58;;;;;;;4.63;1.67;;;;;;;;;;5091669;28;20031;-59
2021/07/14 00:56:24;;;;;;;1.50;1.40;;;;;;;;;;5088551;28;20016;-58
2021/07/14 00:58:49;;;;;;;1.67;1.50;;;;;;;;;;5089918;28;20073;-58
2021/07/14 01:01:14;;;;;;;2.88;2.00;;;;;;;;;;5089532;28;20028;-59
2021/07/14 01:03:43;;;;;;;2.35;1.55;;;;;;;;;;5085319;28;20506;-59
2021/07/14 01:06:11;;;;;;;2.63;1.90;;;;;;;;;;5071527;28;20455;-59
2021/07/14 01:08:57;;;;;;;1.77;1.67;;;;;;;;;;5090971;28;20436;-58
2021/07/14 01:11:24;;;;;;;1.63;1.52;;;;;;;;;;5088673;28;20091;-59
2021/07/14 01:13:57;;;;;;;3.65;1.48;;;;;;;;;;5086150;28;20035;-58
2021/07/14 01:16:25;;;;;;;3.38;1.73;;;;;;;;;;5087822;28;20023;-58
2021/07/14 01:18:53;;;;;;;2.78;1.73;;;;;;;;;;5091585;28;20578;-59
2021/07/14 01:21:20;;;;;;;2.15;1.85;;;;;;;;;;5090690;28;20047;-59
2021/07/14 01:23:59;;;;;;;1.58;1.48;;;;;;;;;;5090098;28;20042;-60
2021/07/14 01:26:30;;;;;;;1.85;1.40;;;;;;;;;;5083832;28;20024;-59
2021/07/14 01:28:56;;;;;;;1.75;1.60;;;;;;;;;;5091543;28;20024;-59
2021/07/14 01:31:22;;;;;;;2.38;1.42;;;;;;;;;;5088045;28;20065;-59
2021/07/14 01:33:50;;;;;;;2.08;1.50;;;;;;;;;;5090614;28;20027;-60
2021/07/14 01:36:17;;;;;;;3.40;1.50;;;;;;;;;;5088519;28;20020;-59
2021/07/14 01:38:44;;;;;;;4.05;1.88;;;;;;;;;;5091550;28;20023;-59
2021/07/14 01:41:09;;;;;;;3.95;1.42;;;;;;;;;;5091472;28;20020;-59
2021/07/14 01:43:39;;;;;;;1.55;1.20;;;;;;;;;;5094821;28;20497;-59
2021/07/14 01:46:06;;;;;;;3.08;1.30;;;;;;;;;;5091783;28;20036;-59
2021/07/14 01:48:32;;;;;;;1.80;1.10;;;;;;;;;;5095139;28;20153;-59
2021/07/14 01:50:57;;;;;;;2.30;1.00;;;;;;;;;;5093741;28;20091;-59
2021/07/14 01:53:23;;;;;;;3.53;1.20;;;;;;;;;;5093663;28;20122;-59
2021/07/14 01:55:49;;;;;;;3.58;0.90;;;;;;;;;;5091270;28;20016;-59
2021/07/14 01:58:15;;;;;;;1.95;1.02;;;;;;;;;;5093603;28;20035;-59
2021/07/14 02:00:40;;;;;;;1.13;0.65;;;;;;;;;;5094335;28;20039;-59
2021/07/14 02:03:28;;;;;;;2.45;1.13;;;;;;;;;;5093606;28;20470;-59
2021/07/14 02:05:58;;;;;;;2.95;0.95;;;;;;;;;;5091826;28;20020;-60
2021/07/14 02:08:24;;;;;;;1.52;1.00;;;;;;;;;;5094175;28;20020;-59
2021/07/14 02:10:50;;;;;;;2.55;1.00;;;;;;;;;;5094271;28;20073;-59
2021/07/14 02:13:16;;;;;;;1.75;1.35;;;;;;;;;;5093323;28;20035;-60
2021/07/14 02:15:42;;;;;;;2.03;0.70;;;;;;;;;;5091945;28;20032;-59
2021/07/14 02:18:11;;;;;;;1.60;1.00;;;;;;;;;;5094177;28;20017;-60
2021/07/14 02:20:37;;;;;;;2.92;0.90;;;;;;;;;;5093618;28;20020;-59
2021/07/14 02:23:06;;;;;;;0.80;0.80;;;;;;;;;;5094004;28;20485;-59
2021/07/14 02:25:32;;;;;;;1.27;0.77;;;;;;;;;;5091768;28;20383;-59
2021/07/14 02:27:58;;;;;;;0.90;0.82;;;;;;;;;;5093478;28;20102;-58
2021/07/14 02:30:23;;;;;;;2.17;0.93;;;;;;;;;;5093667;28;20103;-58
2021/07/14 02:32:49;;;;;;;1.20;0.80;;;;;;;;;;5093684;28;20024;-58
2021/07/14 02:35:15;;;;;;;3.20;1.00;;;;;;;;;;5091123;28;20787;-58
2021/07/14 02:37:40;;;;;;;1.70;0.70;;;;;;;;;;5093911;28;20055;-58
2021/07/14 02:40:06;;;;;;;1.27;0.80;;;;;;;;;;5093931;28;20024;-59
2021/07/14 02:42:32;;;;;;;2.38;0.73;;;;;;;;;;5093005;28;20791;-59
2021/07/14 02:44:59;;;;;;;0.93;0.70;;;;;;;;;;5092160;28;20355;-59
2021/07/14 02:47:24;;;;;;;1.88;0.98;;;;;;;;;;5091421;28;20012;-59
2021/07/14 02:49:49;;;;;;;1.45;0.75;;;;;;;;;;5093762;28;20027;-59
2021/07/14 02:52:15;;;;;;;1.60;0.73;;;;;;;;;;5092839;28;20090;-59
2021/07/14 02:54:41;;;;;;;1.73;0.50;;;;;;;;;;5093822;28;20103;-59
2021/07/14 02:57:08;;;;;;;1.42;0.73;;;;;;;;;;5090243;28;20378;-59
2021/07/14 02:59:35;;;;;;;1.13;0.77;;;;;;;;;;5093680;28;20605;-59
2021/07/14 03:02:01;;;;;;;3.17;0.75;;;;;;;;;;5093417;28;20053;-60
2021/07/14 03:04:29;;;;;;;0.90;0.80;;;;;;;;;;5093564;28;20315;-58
2021/07/14 03:06:55;;;;;;;1.33;0.70;;;;;;;;;;5089998;28;20478;-59
2021/07/14 03:09:20;;;;;;;0.85;0.80;;;;;;;;;;5093218;28;20307;-60
2021/07/14 03:11:45;;;;;;;2.38;1.20;;;;;;;;;;5093057;28;20024;-59
2021/07/14 03:14:11;;;;;;;1.65;1.05;;;;;;;;;;5093611;28;20074;-59
2021/07/14 03:16:37;;;;;;;2.45;0.70;;;;;;;;;;5090163;28;20099;-59
2021/07/14 03:19:02;;;;;;;1.40;0.60;;;;;;;;;;5091387;28;20024;-59
2021/07/14 03:21:29;;;;;;;3.45;0.98;;;;;;;;;;5092595;28;20414;-60
2021/07/14 03:23:54;;;;;;;1.75;0.68;;;;;;;;;;5092988;28;20073;-59
2021/07/14 03:26:20;;;;;;;3.25;0.82;;;;;;;;;;5090739;28;20028;-59
2021/07/14 03:28:45;;;;;;;2.90;0.75;;;;;;;;;;5092226;28;20456;-59
2021/07/14 03:31:11;;;;;;;2.13;0.68;;;;;;;;;;5087650;28;20047;-59
2021/07/14 03:33:37;;;;;;;3.63;0.82;;;;;;;;;;5092579;28;20062;-59
2021/07/14 03:36:04;;;;;;;0.93;0.63;;;;;;;;;;5089999;28;20077;-59
2021/07/14 03:38:30;;;;;;;2.38;0.80;;;;;;;;;;5092573;28;20111;-59
2021/07/14 03:40:56;;;;;;;3.58;0.80;;;;;;;;;;5092273;28;20664;-59
2021/07/14 03:43:23;;;;;;;0.70;0.70;;;;;;;;;;5092440;28;20028;-59
2021/07/14 03:45:48;;;;;;;2.45;0.80;;;;;;;;;;5089331;28;20023;-60
2021/07/14 03:48:17;;;;;;;1.35;0.80;;;;;;;;;;5092760;28;20028;-59
2021/07/14 03:50:45;;;;;;;0.82;0.80;;;;;;;;;;5092346;28;20040;-59
2021/07/14 03:53:11;;;;;;;1.77;0.75;;;;;;;;;;5092196;28;20061;-60
2021/07/14 03:55:36;;;;;;;2.15;0.77;;;;;;;;;;5089982;28;20028;-59
2021/07/14 03:58:01;;;;;;;1.50;0.68;;;;;;;;;;5088516;28;20024;-59
2021/07/14 04:00:27;;;;;;;1.30;0.63;;;;;;;;;;5091316;28;20421;-59
2021/07/14 04:02:53;;;;;;;2.50;0.80;;;;;;;;;;5092359;28;20035;-60
2021/07/14 04:05:18;;;;;;;1.85;0.60;;;;;;;;;;5088846;28;20020;-60
2021/07/14 04:07:45;;;;;;;1.80;0.88;;;;;;;;;;5090781;28;20111;-59
2021/07/14 04:10:10;;;;;;;1.30;0.90;;;;;;;;;;5091850;28;20069;-59
2021/07/14 04:12:35;;;;;;;0.80;0.68;;;;;;;;;;5091644;28;20031;-59
2021/07/14 04:15:01;;;;;;;1.77;1.00;;;;;;;;;;5090176;28;20614;-59
2021/07/14 04:17:26;;;;;;;0.98;0.82;;;;;;;;;;5080529;28;20024;-59
2021/07/14 04:19:51;;;;;;;0.60;0.55;;;;;;;;;;5091319;28;20023;-59
2021/07/14 04:22:17;;;;;;;1.17;0.90;;;;;;;;;;5092090;28;20020;-59
2021/07/14 04:24:42;;;;;;;2.47;0.70;;;;;;;;;;5091618;28;20020;-59
2021/07/14 04:27:08;;;;;;;0.60;0.60;;;;;;;;;;5087505;28;20069;-60
2021/07/14 04:29:33;;;;;;;1.30;0.70;;;;;;;;;;5091657;28;20028;-58
2021/07/14 04:31:59;;;;;;;1.23;1.13;;;;;;;;;;5091476;28;20087;-59
2021/07/14 04:34:24;;;;;;;0.82;0.80;;;;;;;;;;5091906;28;20020;-59
2021/07/14 04:36:50;;;;;;;1.42;0.82;;;;;;;;;;5088380;28;20023;-59
2021/07/14 04:39:15;;;;;;;1.45;1.00;;;;;;;;;;5089019;28;20121;-61
2021/07/14 04:41:41;;;;;;;0.70;0.70;;;;;;;;;;5087102;28;20039;-59
2021/07/14 04:44:09;;;;;;;1.85;1.02;;;;;;;;;;5086496;28;20024;-59
2021/07/14 04:46:34;;;;;;;2.30;0.85;;;;;;;;;;5087637;28;20024;-59
2021/07/14 04:49:00;;;;;;;2.15;0.80;;;;;;;;;;5090660;28;20382;-58
2021/07/14 04:51:25;;;;;;;1.13;0.60;;;;;;;;;;5091184;28;20026;-59
2021/07/14 04:53:50;;;;;;;1.23;0.90;;;;;;;;;;5092679;28;20028;-58
2021/07/14 04:56:18;;;;;;;1.83;0.80;;;;;;;;;;5087066;28;20487;-59
2021/07/14 04:58:44;;;;;;;2.33;0.73;;;;;;;;;;5082732;28;20081;-59
2021/07/14 05:01:13;;;;;;;1.13;1.00;;;;;;;;;;5074221;28;20020;-59
2021/07/14 05:03:38;;;;;;;0.75;0.73;;;;;;;;;;5080517;28;20028;-60
2021/07/14 05:06:03;;;;;;;1.20;0.98;;;;;;;;;;5087780;28;20077;-57
2021/07/14 05:08:28;;;;;;;2.13;1.13;;;;;;;;;;5083636;28;20103;-59
2021/07/14 05:10:53;;;;;;;1.77;0.90;;;;;;;;;;5071746;28;20032;-59
2021/07/14 05:13:19;;;;;;;1.98;0.70;;;;;;;;;;5077656;28;20028;-58
2021/07/14 05:15:44;;;;;;;2.85;0.70;;;;;;;;;;5089769;28;20104;-59
2021/07/14 05:18:10;;;;;;;0.90;0.70;;;;;;;;;;5094682;28;20072;-58
2021/07/14 05:20:35;;;;;;;0.63;0.63;;;;;;;;;;5095589;28;20024;-59
2021/07/14 05:23:01;;;;;;;1.20;0.70;;;;;;;;;;5094701;28;20324;-59
2021/07/14 05:25:26;;;;;;;1.52;0.90;;;;;;;;;;5092443;28;20028;-59
2021/07/14 05:27:51;;;;;;;1.60;0.65;;;;;;;;;;5094650;28;20017;-59
2021/07/14 05:30:17;;;;;;;0.63;0.63;;;;;;;;;;5094632;28;20016;-60
2021/07/14 05:32:43;;;;;;;2.25;0.80;;;;;;;;;;5095128;28;20107;-60
2021/07/14 05:35:08;;;;;;;1.40;0.85;;;;;;;;;;5092532;28;20024;-58
2021/07/14 05:37:33;;;;;;;2.58;0.73;;;;;;;;;;5095003;28;20122;-58
2021/07/14 05:39:59;;;;;;;0.82;0.60;;;;;;;;;;5094897;28;20097;-59
2021/07/14 05:42:24;;;;;;;2.17;0.60;;;;;;;;;;5101208;28;20097;-60
2021/07/14 05:44:49;;;;;;;1.80;0.50;;;;;;;;;;5093650;28;20073;-60
2021/07/14 05:47:14;;;;;;;0.60;0.45;;;;;;;;;;5094512;28;20021;-60
2021/07/14 05:49:40;;;;;;;0.50;0.40;;;;;;;;;;5096447;28;20434;-59
2021/07/14 05:52:08;;;;;;;2.08;0.50;;;;;;;;;;5102188;28;20549;-59
2021/07/14 05:54:33;;;;;;;1.08;0.60;;;;;;;;;;5100987;28;20360;-58
2021/07/14 05:56:58;;;;;;;4.25;0.55;;;;;;;;;;5090919;28;20026;-59
2021/07/14 05:59:24;;;;;;;2.75;0.50;;;;;;;;;;5094418;28;20028;-59
2021/07/14 06:01:49;;;;;;;0.70;0.40;;;;;;;;;;5093502;28;20024;-60
2021/07/14 06:04:14;;;;;;;0.40;0.40;;;;;;;;;;5094477;28;20028;-59
2021/07/14 06:06:39;;;;;;;1.15;0.50;;;;;;;;;;5089914;28;20043;-58
2021/07/14 06:09:04;;;;;;;1.33;0.20;;;;;;;;;;5093149;28;20056;-59
2021/07/14 06:11:30;;;;;;;0.95;0.30;;;;;;;;;;5093880;28;20270;-60
2021/07/14 06:13:55;;;;;;;1.83;0.32;;;;;;;;;;5094137;28;20486;-59
2021/07/14 06:16:20;;;;;;;0.57;0.40;;;;;;;;;;5092016;28;20094;-60
2021/07/14 06:18:45;;;;;;;0.50;0.38;;;;;;;;;;5093451;28;20069;-59
2021/07/14 06:21:11;;;;;;;0.30;0.20;;;;;;;;;;5093860;28;20096;-60
2021/07/14 06:23:36;;;;;;;0.73;0.40;;;;;;;;;;5090273;28;20524;-60
2021/07/14 06:26:02;;;;;;;0.40;0.38;;;;;;;;;;5086566;28;20023;-59
2021/07/14 06:28:28;;;;;;;0.88;0.20;;;;;;;;;;5088935;28;20016;-59
2021/07/14 06:30:53;;;;;;;0.45;0.30;;;;;;;;;;5091729;28;20468;-59
2021/07/14 06:33:21;;;;;;;0.70;0.20;;;;;;;;;;5091337;28;20016;-59
2021/07/14 06:35:47;;;;;;;0.57;0.30;;;;;;;;;;5089537;28;20020;-59
2021/07/14 06:38:12;;;;;;;1.33;0.20;;;;;;;;;;5093658;28;20023;-59
2021/07/14 06:40:38;;;;;;;0.30;0.20;;;;;;;;;;5093736;28;20028;-59
2021/07/14 06:43:06;;;;;;;0.43;0.28;;;;;;;;;;5092051;28;20547;-59
2021/07/14 06:45:31;;;;;;;0.20;0.20;;;;;;;;;;5089467;28;20419;-59
2021/07/14 06:47:56;;;;;;;1.05;0.20;;;;;;;;;;5093188;28;20099;-60
2021/07/14 06:50:22;;;;;;;0.65;0.20;;;;;;;;;;5090490;28;20028;-59
2021/07/14 06:52:47;;;;;;;1.27;0.20;;;;;;;;;;5093169;28;20127;-58
2021/07/14 06:55:12;;;;;;;1.15;0.20;;;;;;;;;;5090428;28;20016;-58
2021/07/14 06:57:39;;;;;;;1.00;0.20;;;;;;;;;;5090527;28;20043;-59
2021/07/14 07:00:05;;;;;;;0.30;0.20;;;;;;;;;;5085941;28;20024;-58
2021/07/14 07:02:31;;;;;;;0.20;0.20;;;;;;;;;;5088659;28;20016;-59
2021/07/14 07:04:56;;;;;;;0.50;0.10;;;;;;;;;;5090801;28;20425;-59
2021/07/14 07:07:21;;;;;;;0.30;0.20;;;;;;;;;;5091874;28;20032;-59
2021/07/14 07:09:46;;;;;;;0.20;0.20;;;;;;;;;;5092212;28;20020;-58
2021/07/14 07:12:12;;;;;;;1.30;0.20;;;;;;;;;;5092227;28;20031;-58
2021/07/14 07:14:38;;;;;;;0.20;0.20;;;;;;;;;;5092691;28;20032;-59
2021/07/14 07:17:03;;;;;;;0.82;0.20;;;;;;;;;;5089865;28;20134;-58
2021/07/14 07:19:28;;;;;;;0.75;0.20;;;;;;;;;;5092783;28;20096;-59
2021/07/14 07:21:53;;;;;;;0.50;0.20;;;;;;;;;;5091342;28;20110;-59
2021/07/14 07:24:19;;;;;;;0.35;0.30;;;;;;;;;;5091818;28;20028;-59
2021/07/14 07:26:45;;;;;;;0.50;0.15;;;;;;;;;;5088922;28;20020;-58
2021/07/14 07:29:11;;;;;;;0.80;0.20;;;;;;;;;;5089164;28;20024;-60
2021/07/14 07:31:36;;;;;;;0.20;0.10;;;;;;;;;;5091750;28;20019;-59
2021/07/14 07:34:02;;;;;;;0.30;0.20;;;;;;;;;;5092243;28;20020;-58
2021/07/14 07:36:27;;;;;;;1.17;0.20;;;;;;;;;;5089947;28;20051;-58
2021/07/14 07:38:53;;;;;;;0.90;0.20;;;;;;;;;;5092013;28;20016;-58
2021/07/14 07:41:19;;;;;;;0.52;0.28;;;;;;;;;;5089853;28;20478;-57
2021/07/14 07:43:44;;;;;;;0.30;0.10;;;;;;;;;;5092287;28;20493;-54
2021/07/14 07:46:10;;;;;;;0.52;0.10;;;;;;;;;;5090110;28;20020;-54
2021/07/14 07:48:35;;;;;;;0.30;0.17;;;;;;;;;;5089926;28;20024;-57
2021/07/14 07:51:00;;;;;;;0.45;0.10;;;;;;;;;;5090050;28;20026;-57
2021/07/14 07:53:26;;;;;;;0.30;0.20;;;;;;;;;;5087630;28;20101;-58
2021/07/14 07:55:52;;;;;;;0.20;0.20;;;;;;;;;;5088155;28;20058;-57
2021/07/14 07:58:18;;;;;;;0.75;0.10;;;;;;;;;;5090124;28;20031;-58
2021/07/14 08:00:43;;;;;;;1.85;0.28;;;;;;;;;;5089829;28;20019;-59
2021/07/14 08:03:09;;;;;;;0.75;0.15;;;;;;;;;;5090168;28;20023;-59
2021/07/14 08:05:34;;;;;;;0.63;0.13;;;;;;;;;;5088522;28;20036;-57
2021/07/14 08:07:59;;;;;;;0.30;0.20;;;;;;;;;;5085571;28;20412;-58
2021/07/14 08:10:24;;;;;;;0.20;0.20;;;;;;;;;;5089923;28;20070;-57
2021/07/14 08:12:50;;;;;;;1.75;0.20;;;;;;;;;;5089899;28;20016;-59
2021/07/14 08:15:16;;;;;;;0.43;0.10;;;;;;;;;;5086862;28;20089;-58
2021/07/14 08:17:42;;;;;;;0.10;0.10;;;;;;;;;;5091012;28;20020;-59
2021/07/14 08:20:08;;;;;;;1.60;0.10;;;;;;;;;;5091381;28;20016;-59
2021/07/14 08:22:34;;;;;;;0.90;0.20;;;;;;;;;;5089167;28;20023;-58
2021/07/14 08:24:59;;;;;;;1.38;0.20;;;;;;;;;;5084559;28;20016;-58
2021/07/14 08:27:25;;;;;;;0.20;0.20;;;;;;;;;;5090466;28;20039;-58
2021/07/14 08:29:58;;;;;;;0.35;0.30;;;;;;;;;;5091142;28;20148;-58
2021/07/14 08:32:23;;;;;;;0.13;0.10;;;;;;;;;;5088486;28;20383;-57
2021/07/14 08:34:49;;;;;;;0.35;0.10;;;;;;;;;;5087178;28;20016;-57
2021/07/14 08:37:14;;;;;;;2.28;0.20;;;;;;;;;;5089240;28;20154;-57
2021/07/14 08:39:39;;;;;;;0.30;0.20;;;;;;;;;;5088438;28;20106;-58
2021/07/14 08:42:05;;;;;;;0.27;0.20;;;;;;;;;;5088526;28;20340;-57
2021/07/14 08:44:32;;;;;;;1.60;0.20;;;;;;;;;;5112087;28;20655;-57
2021/07/14 08:46:58;;;;;;;0.20;0.13;;;;;;;;;;5109181;28;20022;-57
2021/07/14 08:49:24;;;;;;;0.25;0.20;;;;;;;;;;5104292;28;20016;-58
2021/07/14 08:51:51;;;;;;;0.20;0.10;;;;;;;;;;5091247;28;20101;-58
2021/07/14 08:54:16;;;;;;;0.20;0.20;;;;;;;;;;5099947;28;20059;-58
2021/07/14 08:56:41;;;;;;;0.30;0.20;;;;;;;;;;5088917;28;20051;-58
2021/07/14 08:59:08;;;;;;;0.30;0.10;;;;;;;;;;5088499;28;20403;-57
2021/07/14 09:01:33;;;;;;;0.28;0.10;;;;;;;;;;5091251;28;20024;-58
2021/07/14 09:04:00;;;;;;;0.40;0.20;;;;;;;;;;5089806;28;20073;-57
2021/07/14 09:06:25;;;;;;;0.10;0.10;;;;;;;;;;5083928;28;20063;-58
2021/07/14 09:08:51;;;;;;;0.20;0.20;;;;;;;;;;5090316;28;20048;-58
2021/07/14 09:11:16;;;;;;;0.35;0.10;;;;;;;;;;5090330;28;20052;-58
2021/07/14 09:13:41;;;;;;;0.20;0.15;;;;;;;;;;5090529;28;20532;-58
2021/07/14 09:16:07;;;;;;;0.85;0.10;;;;;;;;;;5080959;28;20017;-57
2021/07/14 09:18:32;;;;;;;0.93;0.10;;;;;;;;;;5090658;28;20082;-58
2021/07/14 09:20:59;;;;;;;0.20;0.10;;;;;;;;;;5089376;28;20475;-58
2021/07/14 09:23:28;;;;;;;0.50;0.25;;;;;;;;;;5088204;28;20068;-56
2021/07/14 09:25:55;;;;;;;0.32;0.10;;;;;;;;;;5085757;28;20065;-58
2021/07/14 09:28:21;;;;;;;0.60;0.10;;;;;;;;;;5087820;28;20465;-58
2021/07/14 09:30:57;;;;;;;0.32;0.20;;;;;;;;;;5089018;28;20501;-58
2021/07/14 09:33:23;;;;;;;0.43;0.25;;;;;;;;;;5080790;28;20383;-59
2021/07/14 09:35:52;;;;;;;0.65;0.20;;;;;;;;;;5079281;28;20536;-57
2021/07/14 09:38:17;;;;;;;0.28;0.10;;;;;;;;;;5088132;28;20043;-57
2021/07/14 09:41:08;;;;;;;0.50;0.20;;;;;;;;;;5088172;28;20024;-58
2021/07/14 09:43:37;;;;;;;0.40;0.10;;;;;;;;;;5083484;28;20294;-57
2021/07/14 09:46:03;;;;;;;0.30;0.20;;;;;;;;;;5086923;28;20528;-58
2021/07/14 09:48:29;;;;;;;0.10;0.10;;;;;;;;;;5091479;28;20020;-57
2021/07/14 09:51:03;;;;;;;0.75;0.10;;;;;;;;;;5088245;28;20024;-56
2021/07/14 09:53:29;;;;;;;0.43;0.10;;;;;;;;;;5085800;28;20048;-58
2021/07/14 09:55:56;;;;;;;0.55;0.17;;;;;;;;;;5084147;28;20059;-56
2021/07/14 09:58:21;;;;;;;0.22;0.13;;;;;;;;;;5086073;28;20459;-58
2021/07/14 10:00:47;;;;;;;0.30;0.30;;;;;;;;;;5084579;28;20028;-59
2021/07/14 10:03:16;;;;;;;0.43;0.10;;;;;;;;;;5090450;28;20270;-58
2021/07/14 10:05:42;;;;;;;0.20;0.10;;;;;;;;;;5090999;28;20012;-58
2021/07/14 10:08:14;;;;;;;0.35;0.20;;;;;;;;;;5085809;28;20359;-58
2021/07/14 10:10:39;;;;;;;0.50;0.20;;;;;;;;;;5088474;28;20127;-59
2021/07/14 10:13:07;;;;;;;2.38;0.20;;;;;;;;;;5087741;28;20515;-57
2021/07/14 10:15:32;;;;;;;0.20;0.20;;;;;;;;;;5090354;28;20482;-57
2021/07/14 10:17:57;;;;;;;0.20;0.20;;;;;;;;;;5090172;28;20028;-58
2021/07/14 10:20:37;;;;;;;0.30;0.30;;;;;;;;;;5082567;28;20277;-59
2021/07/14 10:23:03;;;;;;;0.28;0.20;;;;;;;;;;5089390;28;20332;-57
2021/07/14 10:25:29;;;;;;;0.25;0.25;;;;;;;;;;5087497;28;20068;-58
2021/07/14 10:27:55;;;;;;;0.55;0.30;;;;;;;;;;5093739;28;20103;-58
2021/07/14 10:30:21;;;;;;;1.85;0.30;;;;;;;;;;5091738;28;20066;-57
2021/07/14 10:32:47;;;;;;;0.60;0.30;;;;;;;;;;5092824;28;20180;-58
2021/07/14 10:35:14;;;;;;;0.73;0.20;;;;;;;;;;5082053;28;20463;-58
2021/07/14 10:37:40;;;;;;;0.38;0.20;;;;;;;;;;5089057;28;20016;-58
2021/07/14 10:40:06;;;;;;;0.75;0.40;;;;;;;;;;5085035;28;20104;-59
2021/07/14 10:42:33;;;;;;;1.60;0.30;;;;;;;;;;5089315;28;20438;-59
2021/07/14 10:44:58;;;;;;;1.30;0.25;;;;;;;;;;5089562;28;20107;-59
2021/07/14 10:47:24;;;;;;;0.82;0.30;;;;;;;;;;5090774;28;20161;-58
2021/07/14 10:49:49;;;;;;;0.20;0.20;;;;;;;;;;5091777;28;20475;-59
2021/07/14 10:52:14;;;;;;;1.38;0.35;;;;;;;;;;5086739;28;20040;-57
2021/07/14 10:54:40;;;;;;;1.08;0.30;;;;;;;;;;5090353;28;20028;-57
2021/07/14 10:57:06;;;;;;;0.77;0.20;;;;;;;;;;5085450;28;20027;-58
2021/07/14 10:59:32;;;;;;;0.30;0.25;;;;;;;;;;5091905;28;20038;-58
2021/07/14 11:01:57;;;;;;;1.38;0.30;;;;;;;;;;5090658;28;20111;-59
2021/07/14 11:04:25;;;;;;;0.93;0.20;;;;;;;;;;5091017;28;20471;-59
2021/07/14 11:06:53;;;;;;;0.40;0.25;;;;;;;;;;5086156;28;20353;-58
2021/07/14 11:09:39;;;;;;;1.42;0.30;;;;;;;;;;5090732;28;20039;-58
2021/07/14 11:12:08;;;;;;;0.60;0.30;;;;;;;;;;5078911;28;20371;-58
2021/07/14 11:14:37;;;;;;;1.13;0.20;;;;;;;;;;5090188;28;20020;-58
2021/07/14 11:17:03;;;;;;;0.50;0.20;;;;;;;;;;5087502;28;20418;-57
2021/07/14 11:19:48;;;;;;;1.30;0.30;;;;;;;;;;5092134;28;20016;-58
2021/07/14 11:22:14;;;;;;;0.35;0.35;;;;;;;;;;5092039;28;20056;-58
2021/07/14 11:24:41;;;;;;;0.68;0.40;;;;;;;;;;5092243;28;20450;-59
2021/07/14 11:27:18;;;;;;;0.90;0.40;;;;;;;;;;5088373;28;20014;-58
2021/07/14 11:29:44;;;;;;;0.30;0.30;;;;;;;;;;5088805;28;20621;-58
2021/07/14 11:32:10;;;;;;;1.23;0.20;;;;;;;;;;5078346;28;20391;-58
2021/07/14 11:34:37;;;;;;;0.57;0.32;;;;;;;;;;5092486;28;20028;-59
2021/07/14 11:37:21;;;;;;;2.05;0.38;;;;;;;;;;5089003;28;20016;-58
2021/07/14 11:39:46;;;;;;;0.95;0.20;;;;;;;;;;5090095;28;20028;-57
2021/07/14 11:42:16;;;;;;;0.50;0.30;;;;;;;;;;5091448;28;20165;-59
2021/07/14 11:44:50;;;;;;;2.10;0.30;;;;;;;;;;5080245;28;20282;-56
2021/07/14 11:47:37;;;;;;;0.50;0.20;;;;;;;;;;5086544;28;20535;-58
2021/07/14 11:50:03;;;;;;;0.90;0.35;;;;;;;;;;5090831;28;20028;-57
2021/07/14 11:52:44;;;;;;;0.20;0.20;;;;;;;;;;5091724;28;20044;-58
2021/07/14 11:55:21;;;;;;;0.63;0.28;;;;;;;;;;5081743;28;20017;-58
2021/07/14 11:57:47;;;;;;;1.15;0.28;;;;;;;;;;5090811;28;20103;-57
2021/07/14 12:00:12;;;;;;;0.97;0.30;;;;;;;;;;5091960;28;20104;-57
2021/07/14 12:02:37;;;;;;;0.38;0.30;;;;;;;;;;5092915;28;20294;-57
2021/07/14 12:05:04;;;;;;;0.55;0.30;;;;;;;;;;5089498;28;20085;-58
2021/07/14 12:07:37;;;;;;;1.65;0.20;;;;;;;;;;5091645;28;20016;-58
2021/07/14 12:10:03;;;;;;;1.75;0.30;;;;;;;;;;5091606;28;20030;-58
2021/07/14 12:12:29;;;;;;;0.20;0.20;;;;;;;;;;5091485;28;20107;-57
2021/07/14 12:14:55;;;;;;;0.85;0.20;;;;;;;;;;5090874;28;20024;-58
2021/07/14 12:17:24;;;;;;;0.28;0.20;;;;;;;;;;5090519;28;20482;-57
2021/07/14 12:19:53;;;;;;;1.25;0.20;;;;;;;;;;5085320;28;20528;-58
2021/07/14 12:22:23;;;;;;;0.40;0.20;;;;;;;;;;5081999;28;20028;-56
2021/07/14 12:24:54;;;;;;;0.20;0.20;;;;;;;;;;5069845;28;20494;-57
2021/07/14 12:27:23;;;;;;;0.75;0.25;;;;;;;;;;5092715;28;20031;-57
2021/07/14 12:30:09;;;;;;;0.30;0.20;;;;;;;;;;5090655;28;20379;-57
2021/07/14 12:32:34;;;;;;;0.50;0.20;;;;;;;;;;5091520;28;20043;-57
2021/07/14 12:34:59;;;;;;;0.25;0.20;;;;;;;;;;5089833;28;20016;-58
2021/07/14 12:37:25;;;;;;;0.20;0.20;;;;;;;;;;5091257;28;20387;-57
2021/07/14 12:39:50;;;;;;;0.37;0.20;;;;;;;;;;5091358;28;20093;-57
2021/07/14 12:42:20;;;;;;;0.20;0.20;;;;;;;;;;5091361;28;20282;-57
2021/07/14 12:44:47;;;;;;;1.00;0.20;;;;;;;;;;5091204;28;20061;-57
2021/07/14 12:47:14;;;;;;;0.85;0.20;;;;;;;;;;5090118;28;20028;-58
2021/07/14 12:49:40;;;;;;;0.20;0.20;;;;;;;;;;5091330;28;20016;-58
2021/07/14 12:52:13;;;;;;;1.02;0.30;;;;;;;;;;5091268;28;20093;-58
2021/07/14 12:54:39;;;;;;;0.30;0.20;;;;;;;;;;5091970;28;20050;-57
2021/07/14 12:57:15;;;;;;;0.75;0.20;;;;;;;;;;5088248;28;20675;-57
2021/07/14 13:00:07;;;;;;;0.75;0.20;;;;;;;;;;5091703;28;20024;-58
2021/07/14 13:02:43;;;;;;;0.20;0.20;;;;;;;;;;5090527;28;20040;-57
2021/07/14 13:05:14;;;;;;;0.65;0.10;;;;;;;;;;5073475;28;20334;-57
2021/07/14 13:07:39;;;;;;;1.40;0.20;;;;;;;;;;5091568;28;20471;-59
2021/07/14 13:10:08;;;;;;;0.70;0.20;;;;;;;;;;5091202;28;20022;-58
2021/07/14 13:12:33;;;;;;;0.75;0.20;;;;;;;;;;5091776;28;20012;-57
2021/07/14 13:14:59;;;;;;;0.50;0.20;;;;;;;;;;5088624;28;20073;-58
2021/07/14 13:17:43;;;;;;;0.20;0.20;;;;;;;;;;5090703;28;20047;-59
2021/07/14 13:20:08;;;;;;;0.80;0.17;;;;;;;;;;5091290;28;20055;-58
2021/07/14 13:22:34;;;;;;;1.08;0.40;;;;;;;;;;5091367;28;20052;-59
2021/07/14 13:25:00;;;;;;;1.23;0.22;;;;;;;;;;5088657;28;20050;-59
2021/07/14 13:27:26;;;;;;;1.85;0.30;;;;;;;;;;5090169;28;20023;-59
2021/07/14 13:29:51;;;;;;;0.40;0.20;;;;;;;;;;5090900;28;20073;-58
2021/07/14 13:32:16;;;;;;;0.93;0.20;;;;;;;;;;5093746;28;20016;-58
2021/07/14 13:34:43;;;;;;;0.20;0.20;;;;;;;;;;5091210;28;20379;-58
2021/07/14 13:37:08;;;;;;;0.20;0.20;;;;;;;;;;5090618;28;20047;-58
2021/07/14 13:39:38;;;;;;;2.05;0.22;;;;;;;;;;5088889;28;20118;-58
2021/07/14 13:42:12;;;;;;;0.20;0.20;;;;;;;;;;5090630;28;20606;-59
2021/07/14 13:44:38;;;;;;;0.55;0.20;;;;;;;;;;5082152;28;20531;-59
2021/07/14 13:47:04;;;;;;;0.60;0.20;;;;;;;;;;5071937;28;20043;-59
2021/07/14 13:49:35;;;;;;;2.05;0.35;;;;;;;;;;5093383;28;20024;-58
2021/07/14 13:52:00;;;;;;;0.20;0.20;;;;;;;;;;5093862;28;20044;-59
2021/07/14 13:54:25;;;;;;;0.52;0.20;;;;;;;;;;5091874;28;20028;-57
2021/07/14 13:56:52;;;;;;;0.47;0.20;;;;;;;;;;5084725;28;20038;-58
2021/07/14 13:59:21;;;;;;;0.47;0.17;;;;;;;;;;5093525;28;20028;-57
2021/07/14 14:02:00;;;;;;;0.45;0.20;;;;;;;;;;5093399;28;20039;-60
2021/07/14 14:04:26;;;;;;;1.17;0.20;;;;;;;;;;5083907;28;20020;-58
2021/07/14 14:06:52;;;;;;;0.20;0.20;;;;;;;;;;5074958;28;20020;-58
2021/07/14 14:09:17;;;;;;;0.20;0.20;;;;;;;;;;5092076;28;20028;-58
2021/07/14 14:11:43;;;;;;;0.93;0.20;;;;;;;;;;5093009;28;20016;-58
2021/07/14 14:14:08;;;;;;;1.53;0.30;;;;;;;;;;5093448;28;20028;-58
2021/07/14 14:16:33;;;;;;;0.30;0.30;;;;;;;;;;5089357;28;20016;-58
2021/07/14 14:18:58;;;;;;;0.30;0.20;;;;;;;;;;5090604;28;20266;-58
2021/07/14 14:21:24;;;;;;;0.97;0.20;;;;;;;;;;5091847;28;20047;-59
2021/07/14 14:23:49;;;;;;;0.20;0.20;;;;;;;;;;5093281;28;20028;-59
2021/07/14 14:26:16;;;;;;;0.73;0.20;;;;;;;;;;5091229;28;20294;-59
2021/07/14 14:28:41;;;;;;;0.52;0.20;;;;;;;;;;5091954;28;20020;-57
2021/07/14 14:31:08;;;;;;;1.43;0.20;;;;;;;;;;5093400;28;20416;-58
2021/07/14 14:33:33;;;;;;;1.50;0.30;;;;;;;;;;5089436;28;20138;-58
2021/07/14 14:35:59;;;;;;;1.75;0.20;;;;;;;;;;5091489;28;20123;-58
2021/07/14 14:38:24;;;;;;;0.20;0.20;;;;;;;;;;5091253;28;20020;-58
2021/07/14 14:40:50;;;;;;;0.30;0.30;;;;;;;;;;5091492;28;20020;-58
2021/07/14 14:43:16;;;;;;;1.80;0.30;;;;;;;;;;5084074;28;20047;-58
2021/07/14 14:45:44;;;;;;;0.20;0.20;;;;;;;;;;5089651;28;20506;-58
2021/07/14 14:48:09;;;;;;;0.38;0.25;;;;;;;;;;5091356;28;20038;-58
2021/07/14 14:50:34;;;;;;;0.30;0.30;;;;;;;;;;5092483;28;20020;-59